sensor_id;sensor_type;location;lat;lon;timestamp;pressure;altitude;pressure_sealevel;temperature;humidity
59274;BME280;45044;41.572;24.730;2023-08-12T00:01:20;91915.50;;;11.29;100.00
59274;BME280;45044;41.572;24.730;2023-08-12T00:03:48;91923.78;;;11.31;100.00
59274;BME280;45044;41.572;24.730;2023-08-12T00:06:15;91914.78;;;11.32;100.00
59274;BME280;45044;41.572;24.730;2023-08-12T00:08:42;91916.97;;;11.23;100.00
59274;BME280;45044;41.572;24.730;2023-08-12T00:11:09;91916.91;;;11.16;100.00
59274;BME280;45044;41.572;24.730;2023-08-12T00:13:36;91909.72;;;11.12;100.00
59274;BME280;45044;41.572;24.730;2023-08-12T00:16:03;91921.00;;;11.13;100.00
59274;BME280;45044;41.572;24.730;2023-08-12T00:18:30;91901.38;;;11.03;100.00
59274;BME280;45044;41.572;24.730;2023-08-12T00:21:09;91919.44;;;11.05;100.00
59274;BME280;45044;41.572;24.730;2023-08-12T00:23:38;91916.47;;;11.10;100.00
59274;BME280;45044;41.572;24.730;2023-08-12T00:26:06;91913.13;;;11.17;100.00
59274;BME280;45044;41.572;24.730;2023-08-12T00:28:34;91908.28;;;11.19;100.00
59274;BME280;45044;41.572;24.730;2023-08-12T00:31:00;91915.31;;;11.07;100.00
59274;BME280;45044;41.572;24.730;2023-08-12T00:33:28;91912.25;;;10.67;100.00
59274;BME280;45044;41.572;24.730;2023-08-12T00:35:54;91910.88;;;10.77;100.00
59274;BME280;45044;41.572;24.730;2023-08-12T00:38:21;91908.78;;;10.94;100.00
59274;BME280;45044;41.572;24.730;2023-08-12T00:40:48;91918.22;;;10.98;100.00
59274;BME280;45044;41.572;24.730;2023-08-12T00:43:15;91917.50;;;11.01;100.00
59274;BME280;45044;41.572;24.730;2023-08-12T00:45:42;91914.50;;;10.99;100.00
59274;BME280;45044;41.572;24.730;2023-08-12T00:48:09;91909.97;;;11.00;100.00
59274;BME280;45044;41.572;24.730;2023-08-12T00:50:41;91910.41;;;11.06;100.00
59274;BME280;45044;41.572;24.730;2023-08-12T00:53:09;91913.00;;;11.02;100.00
59274;BME280;45044;41.572;24.730;2023-08-12T00:55:36;91909.25;;;11.03;100.00
59274;BME280;45044;41.572;24.730;2023-08-12T00:58:03;91905.44;;;10.97;100.00
59274;BME280;45044;41.572;24.730;2023-08-12T01:00:32;91897.47;;;10.89;100.00
59274;BME280;45044;41.572;24.730;2023-08-12T01:03:00;91902.28;;;10.84;100.00
59274;BME280;45044;41.572;24.730;2023-08-12T01:05:29;91909.50;;;10.90;100.00
59274;BME280;45044;41.572;24.730;2023-08-12T01:07:56;91899.59;;;10.76;100.00
59274;BME280;45044;41.572;24.730;2023-08-12T01:10:26;91898.44;;;10.74;100.00
59274;BME280;45044;41.572;24.730;2023-08-12T01:15:30;91892.59;;;10.92;100.00
59274;BME280;45044;41.572;24.730;2023-08-12T01:17:59;91900.91;;;10.94;100.00
59274;BME280;45044;41.572;24.730;2023-08-12T01:20:27;91901.59;;;10.90;100.00
59274;BME280;45044;41.572;24.730;2023-08-12T01:23:11;91898.63;;;10.92;100.00
59274;BME280;45044;41.572;24.730;2023-08-12T01:25:38;91886.78;;;10.75;100.00
59274;BME280;45044;41.572;24.730;2023-08-12T01:28:05;91889.09;;;10.80;100.00
59274;BME280;45044;41.572;24.730;2023-08-12T01:31:26;91897.06;;;10.87;100.00
59274;BME280;45044;41.572;24.730;2023-08-12T01:33:58;91891.38;;;10.82;100.00
59274;BME280;45044;41.572;24.730;2023-08-12T01:36:30;91889.91;;;10.84;100.00
59274;BME280;45044;41.572;24.730;2023-08-12T01:38:59;91889.97;;;10.92;100.00
59274;BME280;45044;41.572;24.730;2023-08-12T01:41:30;91892.25;;;10.59;100.00
59274;BME280;45044;41.572;24.730;2023-08-12T01:43:57;91887.50;;;10.37;100.00
59274;BME280;45044;41.572;24.730;2023-08-12T01:46:24;91883.25;;;10.60;100.00
59274;BME280;45044;41.572;24.730;2023-08-12T01:48:50;91892.03;;;10.40;100.00
59274;BME280;45044;41.572;24.730;2023-08-12T01:51:20;91880.78;;;10.43;100.00
59274;BME280;45044;41.572;24.730;2023-08-12T01:53:47;91882.72;;;10.47;100.00
59274;BME280;45044;41.572;24.730;2023-08-12T01:56:23;91885.97;;;10.67;100.00
59274;BME280;45044;41.572;24.730;2023-08-12T01:58:50;91887.94;;;10.74;100.00
59274;BME280;45044;41.572;24.730;2023-08-12T02:01:17;91883.44;;;10.78;100.00
59274;BME280;45044;41.572;24.730;2023-08-12T02:03:44;91883.19;;;10.90;100.00
59274;BME280;45044;41.572;24.730;2023-08-12T02:06:10;91884.56;;;10.77;100.00
59274;BME280;45044;41.572;24.730;2023-08-12T02:08:37;91886.44;;;10.76;100.00
59274;BME280;45044;41.572;24.730;2023-08-12T02:11:04;91890.88;;;10.72;100.00
59274;BME280;45044;41.572;24.730;2023-08-12T02:13:31;91888.88;;;10.58;100.00
59274;BME280;45044;41.572;24.730;2023-08-12T02:15:57;91891.50;;;10.58;100.00
59274;BME280;45044;41.572;24.730;2023-08-12T02:18:24;91879.97;;;10.66;100.00
59274;BME280;45044;41.572;24.730;2023-08-12T02:20:51;91885.63;;;10.69;100.00
59274;BME280;45044;41.572;24.730;2023-08-12T02:23:18;91885.63;;;10.72;100.00
59274;BME280;45044;41.572;24.730;2023-08-12T02:25:45;91882.91;;;10.61;100.00
59274;BME280;45044;41.572;24.730;2023-08-12T02:28:11;91886.97;;;10.55;100.00
59274;BME280;45044;41.572;24.730;2023-08-12T02:30:38;91880.28;;;10.61;100.00
59274;BME280;45044;41.572;24.730;2023-08-12T02:33:05;91887.75;;;10.59;100.00
59274;BME280;45044;41.572;24.730;2023-08-12T02:35:32;91889.66;;;10.32;100.00
59274;BME280;45044;41.572;24.730;2023-08-12T02:37:59;91894.34;;;10.46;100.00
59274;BME280;45044;41.572;24.730;2023-08-12T02:40:25;91900.31;;;10.42;100.00
59274;BME280;45044;41.572;24.730;2023-08-12T02:42:52;91896.75;;;10.58;100.00
59274;BME280;45044;41.572;24.730;2023-08-12T02:45:19;91897.88;;;10.26;100.00
59274;BME280;45044;41.572;24.730;2023-08-12T02:47:46;91903.31;;;10.41;100.00
59274;BME280;45044;41.572;24.730;2023-08-12T02:50:12;91898.38;;;10.36;100.00
59274;BME280;45044;41.572;24.730;2023-08-12T02:52:39;91903.75;;;10.47;100.00
59274;BME280;45044;41.572;24.730;2023-08-12T02:55:06;91898.25;;;10.56;100.00
59274;BME280;45044;41.572;24.730;2023-08-12T02:57:33;91896.59;;;10.47;100.00
59274;BME280;45044;41.572;24.730;2023-08-12T03:00:00;91901.94;;;10.51;100.00
59274;BME280;45044;41.572;24.730;2023-08-12T03:02:26;91900.47;;;10.53;100.00
59274;BME280;45044;41.572;24.730;2023-08-12T03:04:53;91895.66;;;10.59;100.00
59274;BME280;45044;41.572;24.730;2023-08-12T03:07:23;91893.72;;;10.56;100.00
59274;BME280;45044;41.572;24.730;2023-08-12T03:09:50;91892.94;;;10.52;100.00
59274;BME280;45044;41.572;24.730;2023-08-12T03:12:16;91885.50;;;10.58;100.00
59274;BME280;45044;41.572;24.730;2023-08-12T03:14:43;91892.22;;;10.55;100.00
59274;BME280;45044;41.572;24.730;2023-08-12T03:17:10;91897.88;;;10.57;100.00
59274;BME280;45044;41.572;24.730;2023-08-12T03:19:37;91892.03;;;10.40;100.00
59274;BME280;45044;41.572;24.730;2023-08-12T03:22:04;91890.69;;;10.50;100.00
59274;BME280;45044;41.572;24.730;2023-08-12T03:24:30;91889.78;;;10.42;100.00
59274;BME280;45044;41.572;24.730;2023-08-12T03:26:57;91893.69;;;10.52;100.00
59274;BME280;45044;41.572;24.730;2023-08-12T03:29:24;91890.72;;;10.54;100.00
59274;BME280;45044;41.572;24.730;2023-08-12T03:31:51;91888.31;;;10.45;100.00
59274;BME280;45044;41.572;24.730;2023-08-12T03:34:18;91896.66;;;10.51;100.00
59274;BME280;45044;41.572;24.730;2023-08-12T03:36:44;91894.16;;;10.31;100.00
59274;BME280;45044;41.572;24.730;2023-08-12T03:39:14;91893.22;;;10.47;100.00
59274;BME280;45044;41.572;24.730;2023-08-12T03:41:41;91889.50;;;10.48;100.00
59274;BME280;45044;41.572;24.730;2023-08-12T03:44:08;91901.56;;;10.52;100.00
59274;BME280;45044;41.572;24.730;2023-08-12T03:46:35;91904.63;;;10.58;100.00
59274;BME280;45044;41.572;24.730;2023-08-12T03:49:02;91901.94;;;10.51;100.00
59274;BME280;45044;41.572;24.730;2023-08-12T03:51:28;91899.69;;;10.53;100.00
59274;BME280;45044;41.572;24.730;2023-08-12T03:53:55;91897.47;;;10.55;100.00
59274;BME280;45044;41.572;24.730;2023-08-12T03:56:23;91902.53;;;10.40;100.00
59274;BME280;45044;41.572;24.730;2023-08-12T03:58:51;91900.81;;;10.52;100.00
59274;BME280;45044;41.572;24.730;2023-08-12T04:01:17;91900.16;;;10.59;100.00
59274;BME280;45044;41.572;24.730;2023-08-12T04:03:44;91900.50;;;10.57;100.00
59274;BME280;45044;41.572;24.730;2023-08-12T04:06:11;91901.41;;;10.69;100.00
59274;BME280;45044;41.572;24.730;2023-08-12T04:08:38;91898.91;;;10.49;100.00
59274;BME280;45044;41.572;24.730;2023-08-12T04:11:05;91907.78;;;10.71;100.00
59274;BME280;45044;41.572;24.730;2023-08-12T04:13:32;91908.56;;;10.72;100.00
59274;BME280;45044;41.572;24.730;2023-08-12T04:15:59;91899.94;;;10.75;100.00
59274;BME280;45044;41.572;24.730;2023-08-12T04:18:25;91905.94;;;10.72;100.00
59274;BME280;45044;41.572;24.730;2023-08-12T04:20:52;91906.84;;;10.90;100.00
59274;BME280;45044;41.572;24.730;2023-08-12T04:23:20;91886.47;;;10.80;100.00
59274;BME280;45044;41.572;24.730;2023-08-12T04:25:47;91912.97;;;10.98;100.00
59274;BME280;45044;41.572;24.730;2023-08-12T04:28:14;91912.66;;;11.07;100.00
59274;BME280;45044;41.572;24.730;2023-08-12T04:30:46;91912.09;;;10.87;100.00
59274;BME280;45044;41.572;24.730;2023-08-12T04:33:14;91913.72;;;10.99;100.00
59274;BME280;45044;41.572;24.730;2023-08-12T04:35:41;91916.88;;;11.12;100.00
59274;BME280;45044;41.572;24.730;2023-08-12T04:38:08;91918.41;;;11.17;100.00
59274;BME280;45044;41.572;24.730;2023-08-12T04:40:38;91915.91;;;11.31;100.00
59274;BME280;45044;41.572;24.730;2023-08-12T04:43:07;91914.53;;;11.45;100.00
59274;BME280;45044;41.572;24.730;2023-08-12T04:45:34;91912.75;;;11.60;100.00
59274;BME280;45044;41.572;24.730;2023-08-12T04:48:01;91912.16;;;11.81;100.00
59274;BME280;45044;41.572;24.730;2023-08-12T04:50:31;91917.91;;;11.98;100.00
59274;BME280;45044;41.572;24.730;2023-08-12T04:53:00;91920.97;;;12.07;100.00
59274;BME280;45044;41.572;24.730;2023-08-12T04:55:27;91922.97;;;12.21;100.00
59274;BME280;45044;41.572;24.730;2023-08-12T04:57:54;91930.41;;;12.87;100.00
59274;BME280;45044;41.572;24.730;2023-08-12T05:00:21;91928.53;;;14.73;100.00
59274;BME280;45044;41.572;24.730;2023-08-12T05:02:48;91935.75;;;16.44;100.00
59274;BME280;45044;41.572;24.730;2023-08-12T05:05:16;91943.69;;;17.72;100.00
59274;BME280;45044;41.572;24.730;2023-08-12T05:07:42;91945.09;;;18.73;100.00
59274;BME280;45044;41.572;24.730;2023-08-12T05:10:11;91939.72;;;19.88;100.00
59274;BME280;45044;41.572;24.730;2023-08-12T05:12:37;91925.53;;;20.25;100.00
59274;BME280;45044;41.572;24.730;2023-08-12T05:15:05;91936.78;;;21.48;100.00
59274;BME280;45044;41.572;24.730;2023-08-12T05:17:32;91940.88;;;21.92;100.00
59274;BME280;45044;41.572;24.730;2023-08-12T05:19:59;91933.75;;;22.46;100.00
59274;BME280;45044;41.572;24.730;2023-08-12T05:22:26;91938.38;;;23.36;93.72
59274;BME280;45044;41.572;24.730;2023-08-12T05:24:52;91931.72;;;23.81;87.54
59274;BME280;45044;41.572;24.730;2023-08-12T05:27:19;91929.63;;;24.55;79.54
59274;BME280;45044;41.572;24.730;2023-08-12T05:29:46;91924.84;;;25.06;74.27
59274;BME280;45044;41.572;24.730;2023-08-12T05:32:13;91923.78;;;25.66;69.53
59274;BME280;45044;41.572;24.730;2023-08-12T05:34:40;91922.66;;;26.40;64.58
59274;BME280;45044;41.572;24.730;2023-08-12T05:37:07;91917.59;;;26.33;62.61
59274;BME280;45044;41.572;24.730;2023-08-12T05:39:33;91922.16;;;25.59;69.02
59274;BME280;45044;41.572;24.730;2023-08-12T05:42:00;91914.50;;;24.11;84.26
59274;BME280;45044;41.572;24.730;2023-08-12T05:44:27;91918.38;;;22.73;100.00
59274;BME280;45044;41.572;24.730;2023-08-12T05:46:54;91911.00;;;23.41;100.00
59274;BME280;45044;41.572;24.730;2023-08-12T05:49:20;91907.34;;;24.08;94.08
59274;BME280;45044;41.572;24.730;2023-08-12T05:51:47;91908.19;;;25.27;74.52
59274;BME280;45044;41.572;24.730;2023-08-12T05:54:14;91900.25;;;26.25;68.25
59274;BME280;45044;41.572;24.730;2023-08-12T05:56:41;91885.19;;;27.12;62.90
59274;BME280;45044;41.572;24.730;2023-08-12T05:59:07;91896.13;;;28.05;58.22
59274;BME280;45044;41.572;24.730;2023-08-12T06:01:34;91891.41;;;28.42;56.36
59274;BME280;45044;41.572;24.730;2023-08-12T06:04:01;91888.50;;;29.58;51.77
59274;BME280;45044;41.572;24.730;2023-08-12T06:06:28;91879.38;;;30.43;49.40
59274;BME280;45044;41.572;24.730;2023-08-12T06:08:55;91890.38;;;31.00;47.29
59274;BME280;45044;41.572;24.730;2023-08-12T06:11:22;91880.13;;;30.43;48.63
59274;BME280;45044;41.572;24.730;2023-08-12T06:13:49;91878.00;;;30.82;48.08
59274;BME280;45044;41.572;24.730;2023-08-12T06:16:16;91879.72;;;30.68;48.32
59274;BME280;45044;41.572;24.730;2023-08-12T06:18:43;91881.53;;;31.46;48.13
59274;BME280;45044;41.572;24.730;2023-08-12T06:21:10;91876.31;;;31.82;46.70
59274;BME280;45044;41.572;24.730;2023-08-12T06:23:36;91877.72;;;30.57;49.68
59274;BME280;45044;41.572;24.730;2023-08-12T06:26:03;91870.19;;;29.41;51.88
59274;BME280;45044;41.572;24.730;2023-08-12T06:28:30;91866.97;;;31.31;47.79
59274;BME280;45044;41.572;24.730;2023-08-12T06:30:57;91874.38;;;31.54;46.66
59274;BME280;45044;41.572;24.730;2023-08-12T06:33:24;91868.78;;;29.89;50.21
59274;BME280;45044;41.572;24.730;2023-08-12T06:35:51;91872.16;;;28.81;54.34
59274;BME280;45044;41.572;24.730;2023-08-12T06:38:18;91860.63;;;30.28;53.36
59274;BME280;45044;41.572;24.730;2023-08-12T06:40:46;91865.16;;;29.60;53.41
59274;BME280;45044;41.572;24.730;2023-08-12T06:43:13;91855.97;;;26.96;61.88
59274;BME280;45044;41.572;24.730;2023-08-12T06:45:40;91864.66;;;24.75;94.50
59274;BME280;45044;41.572;24.730;2023-08-12T06:48:07;91856.88;;;26.47;77.57
59274;BME280;45044;41.572;24.730;2023-08-12T06:50:34;91857.16;;;27.55;65.45
59274;BME280;45044;41.572;24.730;2023-08-12T06:53:01;91853.63;;;27.85;64.11
59274;BME280;45044;41.572;24.730;2023-08-12T06:55:27;91854.63;;;26.06;66.05
59274;BME280;45044;41.572;24.730;2023-08-12T06:57:54;91851.63;;;25.79;67.82
59274;BME280;45044;41.572;24.730;2023-08-12T07:00:21;91855.03;;;25.89;68.17
59274;BME280;45044;41.572;24.730;2023-08-12T07:02:48;91851.13;;;27.00;63.98
59274;BME280;45044;41.572;24.730;2023-08-12T07:05:15;91853.59;;;27.13;57.59
59274;BME280;45044;41.572;24.730;2023-08-12T07:07:42;91847.63;;;25.99;61.09
59274;BME280;45044;41.572;24.730;2023-08-12T07:10:09;91855.94;;;25.18;68.46
59274;BME280;45044;41.572;24.730;2023-08-12T07:12:36;91843.22;;;24.57;74.76
59274;BME280;45044;41.572;24.730;2023-08-12T07:15:03;91845.22;;;26.01;68.84
59274;BME280;45044;41.572;24.730;2023-08-12T07:17:30;91848.38;;;27.60;56.95
59274;BME280;45044;41.572;24.730;2023-08-12T07:19:56;91834.16;;;28.97;50.11
59274;BME280;45044;41.572;24.730;2023-08-12T07:22:23;91840.19;;;29.45;49.13
59274;BME280;45044;41.572;24.730;2023-08-12T07:24:50;91838.22;;;28.80;51.31
59274;BME280;45044;41.572;24.730;2023-08-12T07:27:18;91840.41;;;28.08;51.36
59274;BME280;45044;41.572;24.730;2023-08-12T07:29:45;91841.19;;;26.76;54.36
59274;BME280;45044;41.572;24.730;2023-08-12T07:32:12;91844.78;;;28.74;53.10
59274;BME280;45044;41.572;24.730;2023-08-12T07:34:40;91837.56;;;29.18;46.89
59274;BME280;45044;41.572;24.730;2023-08-12T07:37:06;91834.81;;;29.50;46.28
59274;BME280;45044;41.572;24.730;2023-08-12T07:39:33;91837.72;;;29.09;48.65
59274;BME280;45044;41.572;24.730;2023-08-12T07:42:00;91837.59;;;31.13;45.72
59274;BME280;45044;41.572;24.730;2023-08-12T07:44:27;91833.25;;;29.38;46.76
59274;BME280;45044;41.572;24.730;2023-08-12T07:46:53;91833.16;;;28.94;48.11
59274;BME280;45044;41.572;24.730;2023-08-12T07:49:21;91825.47;;;27.92;50.33
59274;BME280;45044;41.572;24.730;2023-08-12T07:51:48;91835.41;;;27.65;52.87
59274;BME280;45044;41.572;24.730;2023-08-12T07:54:15;91820.34;;;28.15;51.56
59274;BME280;45044;41.572;24.730;2023-08-12T07:56:42;91824.53;;;26.77;52.92
59274;BME280;45044;41.572;24.730;2023-08-12T07:59:09;91823.66;;;28.04;50.83
59274;BME280;45044;41.572;24.730;2023-08-12T08:01:36;91824.00;;;26.73;55.75
59274;BME280;45044;41.572;24.730;2023-08-12T08:04:04;91830.88;;;27.05;56.33
59274;BME280;45044;41.572;24.730;2023-08-12T08:06:31;91828.81;;;26.99;50.65
59274;BME280;45044;41.572;24.730;2023-08-12T08:08:58;91827.09;;;29.37;47.93
59274;BME280;45044;41.572;24.730;2023-08-12T08:11:27;91826.97;;;28.88;48.36
59274;BME280;45044;41.572;24.730;2023-08-12T08:13:55;91822.28;;;29.15;47.75
59274;BME280;45044;41.572;24.730;2023-08-12T08:16:22;91824.66;;;29.77;47.69
59274;BME280;45044;41.572;24.730;2023-08-12T08:18:49;91807.63;;;28.68;47.54
59274;BME280;45044;41.572;24.730;2023-08-12T08:21:16;91824.47;;;28.57;48.61
59274;BME280;45044;41.572;24.730;2023-08-12T08:23:42;91815.78;;;29.83;46.69
59274;BME280;45044;41.572;24.730;2023-08-12T08:26:09;91814.00;;;29.68;48.39
59274;BME280;45044;41.572;24.730;2023-08-12T08:28:40;91820.56;;;29.17;45.34
59274;BME280;45044;41.572;24.730;2023-08-12T08:31:07;91826.13;;;28.49;47.34
59274;BME280;45044;41.572;24.730;2023-08-12T08:33:34;91821.09;;;28.15;46.31
59274;BME280;45044;41.572;24.730;2023-08-12T08:36:01;91818.84;;;28.14;49.07
59274;BME280;45044;41.572;24.730;2023-08-12T08:38:27;91818.28;;;26.01;52.02
59274;BME280;45044;41.572;24.730;2023-08-12T08:40:54;91818.44;;;26.77;50.94
59274;BME280;45044;41.572;24.730;2023-08-12T08:43:23;91805.84;;;26.04;51.53
59274;BME280;45044;41.572;24.730;2023-08-12T08:45:52;91804.22;;;25.23;54.88
59274;BME280;45044;41.572;24.730;2023-08-12T08:48:22;91808.31;;;25.09;63.53
59274;BME280;45044;41.572;24.730;2023-08-12T08:50:50;91808.25;;;24.66;63.22
59274;BME280;45044;41.572;24.730;2023-08-12T08:53:18;91796.44;;;25.26;57.92
59274;BME280;45044;41.572;24.730;2023-08-12T08:55:46;91805.91;;;26.34;58.42
59274;BME280;45044;41.572;24.730;2023-08-12T08:58:13;91801.56;;;25.48;58.17
59274;BME280;45044;41.572;24.730;2023-08-12T09:00:47;91807.06;;;26.03;57.98
59274;BME280;45044;41.572;24.730;2023-08-12T09:03:14;91808.72;;;25.76;64.08
59274;BME280;45044;41.572;24.730;2023-08-12T09:05:42;91801.47;;;24.99;58.42
59274;BME280;45044;41.572;24.730;2023-08-12T09:08:09;91801.72;;;25.10;64.05
59274;BME280;45044;41.572;24.730;2023-08-12T09:10:39;91792.41;;;24.68;61.68
59274;BME280;45044;41.572;24.730;2023-08-12T09:13:07;91787.28;;;24.89;57.14
59274;BME280;45044;41.572;24.730;2023-08-12T09:15:35;91788.75;;;24.90;66.20
59274;BME280;45044;41.572;24.730;2023-08-12T09:18:05;91789.94;;;25.08;63.71
59274;BME280;45044;41.572;24.730;2023-08-12T09:20:36;91780.31;;;24.82;60.62
59274;BME280;45044;41.572;24.730;2023-08-12T09:23:03;91791.19;;;24.88;64.17
59274;BME280;45044;41.572;24.730;2023-08-12T09:25:30;91780.84;;;24.43;59.44
59274;BME280;45044;41.572;24.730;2023-08-12T09:27:59;91776.78;;;23.54;73.51
59274;BME280;45044;41.572;24.730;2023-08-12T09:30:29;91782.97;;;24.20;70.86
59274;BME280;45044;41.572;24.730;2023-08-12T09:33:02;91787.69;;;24.54;69.10
59274;BME280;45044;41.572;24.730;2023-08-12T09:35:33;91774.63;;;25.23;59.60
59274;BME280;45044;41.572;24.730;2023-08-12T09:38:03;91779.38;;;24.95;64.10
59274;BME280;45044;41.572;24.730;2023-08-12T09:40:33;91780.63;;;25.18;59.46
59274;BME280;45044;41.572;24.730;2023-08-12T09:43:01;91777.94;;;25.18;57.28
59274;BME280;45044;41.572;24.730;2023-08-12T09:45:30;91780.84;;;25.05;58.81
59274;BME280;45044;41.572;24.730;2023-08-12T09:47:58;91770.50;;;24.70;55.36
59274;BME280;45044;41.572;24.730;2023-08-12T09:50:26;91776.19;;;24.62;58.99
59274;BME280;45044;41.572;24.730;2023-08-12T09:52:54;91765.34;;;24.28;58.47
59274;BME280;45044;41.572;24.730;2023-08-12T09:55:23;91776.59;;;24.70;59.54
59274;BME280;45044;41.572;24.730;2023-08-12T09:57:51;91774.25;;;24.54;57.79
59274;BME280;45044;41.572;24.730;2023-08-12T10:00:21;91766.69;;;23.77;61.35
59274;BME280;45044;41.572;24.730;2023-08-12T10:02:50;91773.69;;;24.40;63.98
59274;BME280;45044;41.572;24.730;2023-08-12T10:05:28;91772.78;;;23.59;54.65
59274;BME280;45044;41.572;24.730;2023-08-12T10:07:58;91772.50;;;23.75;58.34
59274;BME280;45044;41.572;24.730;2023-08-12T10:10:26;91766.22;;;23.69;54.62
59274;BME280;45044;41.572;24.730;2023-08-12T10:12:54;91761.16;;;24.18;59.30
59274;BME280;45044;41.572;24.730;2023-08-12T10:15:31;91771.31;;;23.95;59.33
59274;BME280;45044;41.572;24.730;2023-08-12T10:17:58;91768.63;;;23.95;59.92
59274;BME280;45044;41.572;24.730;2023-08-12T10:20:35;91769.50;;;23.92;73.34
59274;BME280;45044;41.572;24.730;2023-08-12T10:23:04;91770.38;;;23.70;59.18
59274;BME280;45044;41.572;24.730;2023-08-12T10:25:33;91761.66;;;23.28;67.00
59274;BME280;45044;41.572;24.730;2023-08-12T10:28:01;91776.66;;;23.48;70.58
59274;BME280;45044;41.572;24.730;2023-08-12T10:30:29;91769.72;;;23.38;59.73
59274;BME280;45044;41.572;24.730;2023-08-12T10:32:58;91764.56;;;23.43;65.48
59274;BME280;45044;41.572;24.730;2023-08-12T10:35:41;91767.78;;;23.29;56.20
59274;BME280;45044;41.572;24.730;2023-08-12T10:38:13;91753.25;;;22.98;56.62
59274;BME280;45044;41.572;24.730;2023-08-12T10:40:40;91771.75;;;23.15;62.69
59274;BME280;45044;41.572;24.730;2023-08-12T10:43:07;91761.91;;;22.70;69.14
59274;BME280;45044;41.572;24.730;2023-08-12T10:45:54;91762.97;;;22.73;69.46
59274;BME280;45044;41.572;24.730;2023-08-12T10:48:24;91752.53;;;22.43;66.32
59274;BME280;45044;41.572;24.730;2023-08-12T10:50:55;91765.50;;;22.22;69.38
59274;BME280;45044;41.572;24.730;2023-08-12T10:53:26;91764.88;;;22.41;71.82
59274;BME280;45044;41.572;24.730;2023-08-12T10:55:59;91758.13;;;22.36;80.54
59274;BME280;45044;41.572;24.730;2023-08-12T10:58:34;91755.78;;;22.38;85.27
59274;BME280;45044;41.572;24.730;2023-08-12T11:01:02;91756.28;;;22.46;73.98
59274;BME280;45044;41.572;24.730;2023-08-12T11:03:32;91762.41;;;22.24;71.56
59274;BME280;45044;41.572;24.730;2023-08-12T11:06:04;91756.72;;;22.22;68.13
59274;BME280;45044;41.572;24.730;2023-08-12T11:08:33;91759.53;;;22.41;70.89
59274;BME280;45044;41.572;24.730;2023-08-12T11:11:02;91744.25;;;22.82;72.29
59274;BME280;45044;41.572;24.730;2023-08-12T11:13:29;91752.09;;;23.18;69.35
59274;BME280;45044;41.572;24.730;2023-08-12T11:16:17;91744.31;;;23.61;62.67
59274;BME280;45044;41.572;24.730;2023-08-12T11:18:44;91751.00;;;23.47;65.43
59274;BME280;45044;41.572;24.730;2023-08-12T11:21:12;91740.72;;;22.95;67.13
59274;BME280;45044;41.572;24.730;2023-08-12T11:23:39;91747.91;;;23.07;68.40
59274;BME280;45044;41.572;24.730;2023-08-12T11:26:06;91755.03;;;22.92;77.35
59274;BME280;45044;41.572;24.730;2023-08-12T11:28:37;91745.59;;;22.87;72.70
59274;BME280;45044;41.572;24.730;2023-08-12T11:31:04;91756.41;;;23.06;71.51
59274;BME280;45044;41.572;24.730;2023-08-12T11:33:31;91750.50;;;23.39;72.12
59274;BME280;45044;41.572;24.730;2023-08-12T11:35:58;91747.00;;;23.89;57.98
59274;BME280;45044;41.572;24.730;2023-08-12T11:38:28;91745.38;;;23.83;58.16
59274;BME280;45044;41.572;24.730;2023-08-12T11:40:55;91747.16;;;24.04;72.30
59274;BME280;45044;41.572;24.730;2023-08-12T11:43:22;91737.81;;;24.62;65.17
59274;BME280;45044;41.572;24.730;2023-08-12T11:45:49;91736.78;;;25.03;55.24
59274;BME280;45044;41.572;24.730;2023-08-12T11:48:16;91743.06;;;24.99;55.51
59274;BME280;45044;41.572;24.730;2023-08-12T11:50:43;91742.59;;;24.48;55.65
59274;BME280;45044;41.572;24.730;2023-08-12T11:53:10;91744.75;;;24.07;62.68
59274;BME280;45044;41.572;24.730;2023-08-12T11:55:37;91739.06;;;24.14;67.70
59274;BME280;45044;41.572;24.730;2023-08-12T11:58:04;91751.16;;;24.00;61.94
59274;BME280;45044;41.572;24.730;2023-08-12T12:00:32;91754.59;;;23.91;65.76
59274;BME280;45044;41.572;24.730;2023-08-12T12:03:00;91754.75;;;23.68;67.42
59274;BME280;45044;41.572;24.730;2023-08-12T12:05:28;91751.31;;;23.59;61.25
59274;BME280;45044;41.572;24.730;2023-08-12T12:07:59;91743.16;;;23.12;64.44
59274;BME280;45044;41.572;24.730;2023-08-12T12:10:29;91744.66;;;23.13;65.19
59274;BME280;45044;41.572;24.730;2023-08-12T12:13:01;91745.59;;;22.87;89.78
59274;BME280;45044;41.572;24.730;2023-08-12T12:15:29;91741.94;;;23.03;80.27
59274;BME280;45044;41.572;24.730;2023-08-12T12:17:55;91736.44;;;23.07;80.83
59274;BME280;45044;41.572;24.730;2023-08-12T12:20:22;91740.66;;;23.36;76.99
59274;BME280;45044;41.572;24.730;2023-08-12T12:22:49;91733.88;;;23.82;75.27
59274;BME280;45044;41.572;24.730;2023-08-12T12:25:17;91737.69;;;24.47;68.14
59274;BME280;45044;41.572;24.730;2023-08-12T12:27:47;91732.31;;;24.99;61.36
59274;BME280;45044;41.572;24.730;2023-08-12T12:30:15;91731.25;;;25.55;63.16
59274;BME280;45044;41.572;24.730;2023-08-12T12:32:42;91728.38;;;26.38;58.41
59274;BME280;45044;41.572;24.730;2023-08-12T12:35:09;91710.78;;;26.58;50.33
59274;BME280;45044;41.572;24.730;2023-08-12T12:37:36;91718.97;;;26.18;51.98
59274;BME280;45044;41.572;24.730;2023-08-12T12:40:04;91727.66;;;25.98;53.70
59274;BME280;45044;41.572;24.730;2023-08-12T12:42:32;91726.47;;;25.01;55.48
59274;BME280;45044;41.572;24.730;2023-08-12T12:44:59;91720.28;;;24.23;61.62
59274;BME280;45044;41.572;24.730;2023-08-12T12:47:26;91725.38;;;23.93;58.95
59274;BME280;45044;41.572;24.730;2023-08-12T12:49:52;91727.91;;;23.68;60.24
59274;BME280;45044;41.572;24.730;2023-08-12T12:52:19;91724.78;;;23.61;61.33